Latest Weather Observations for Bickley

IDW60801

Issued at 5:54 pm WST Sunday 28 February 2021 (issued every 10 minutes, with the page automatically refreshed every 10 minutes)

About weather observations | Map of weather stations | Latest weather observations for WA | Other Formats
Station Details ID: 009240 Name: BICKLEY Lat: -32.01 Lon: 116.14 Height: 384.0 m
Data from the previous 72 hours. | See also: Recent months at Bickley
Date/Time
WST
Temp
°C
App
Temp
°C
Dew
Point
°C
Rel
Hum
%
Delta-T
°C
Wind Press
QNH
hPa
Press
MSL
hPa
Rain since
9am
mm
Dir  Spd
km/h
Gust
km/h
Spd
kts
Gust
kts
28/05:30pm 25.4 21.0 8.8 35 9.1 ESE 22 41 12 22 - - 0.0
28/05:00pm 26.3 22.9 9.2 34 9.5 SE 17 28 9 15 - - 0.0
28/04:30pm 27.1 23.9 9.9 34 9.7 ESE 17 32 9 17 - - 0.0
28/04:00pm 27.2 23.3 9.5 33 10.0 ESE 20 41 11 22 - - 0.0
28/03:30pm 27.2 23.5 9.5 33 10.0 ESE 19 32 10 17 - - 0.0
28/03:00pm 27.6 24.3 10.8 35 9.7 E 19 28 10 15 - - 0.0
28/02:30pm 26.4 23.4 10.5 37 9.1 E 17 35 9 19 - - 0.0
28/02:00pm 26.6 23.2 11.1 38 8.9 E 20 35 11 19 - - 0.0
28/01:30pm 25.7 22.1 11.8 42 8.1 ESE 22 39 12 21 - - 0.0
28/01:00pm 25.6 21.3 12.1 43 7.9 ESE 26 43 14 23 - - 0.0
28/12:30pm 25.0 22.1 12.9 47 7.1 E 20 35 11 19 - - 0.0
28/12:00pm 24.6 21.6 13.8 51 6.4 ESE 22 32 12 17 - - 0.0
28/11:30am 22.6 19.4 13.1 55 5.6 ESE 22 39 12 21 - - 0.0
28/11:00am 21.5 18.1 12.6 57 5.1 ESE 22 39 12 21 - - 0.0
28/10:30am 21.6 17.9 12.7 57 5.1 ESE 24 39 13 21 - - 0.0
28/10:00am 20.8 17.1 12.8 60 4.6 E 24 41 13 22 - - 0.0
28/09:48am 20.6 16.1 12.6 60 4.6 ESE 28 48 15 26 - - 0.0
28/09:30am 20.5 17.3 13.0 62 4.3 ESE 22 41 12 22 - - 0.0
28/09:00am 19.7 14.8 12.5 63 4.1 E 30 52 16 28 - - 0.0
28/08:56am 19.5 15.0 12.5 64 4.0 E 28 52 15 28 - - 0.0
28/08:30am 18.1 14.2 12.1 68 3.4 ESE 24 43 13 23 - - 0.0
28/08:04am 16.9 11.6 11.2 69 3.1 E 30 48 16 26 - - 0.0
28/08:00am 17.2 11.5 11.2 68 3.3 E 32 48 17 26 - - 0.0
28/07:34am 16.4 11.4 11.1 71 2.9 E 28 48 15 26 - - 0.0
28/07:30am 16.1 11.4 10.8 71 2.9 E 26 48 14 26 - - 0.0
28/07:05am 15.7 10.6 10.7 72 2.7 E 28 50 15 27 - - 0.0
28/07:00am 15.6 10.9 10.6 72 2.7 E 26 50 14 27 - - 0.0
28/06:46am 15.6 10.5 10.6 72 2.7 ESE 28 52 15 28 - - 0.0
28/06:30am 15.5 11.1 10.3 71 2.8 E 24 41 13 22 - - 0.0
28/06:01am 15.7 10.6 10.5 71 2.8 E 28 46 15 25 - - 0.0
28/06:00am 15.7 11.0 10.5 71 2.8 E 26 44 14 24 - - 0.0
28/05:30am 15.9 11.6 10.7 71 2.8 ESE 24 39 13 21 - - 0.0
28/05:00am 16.0 11.6 10.5 70 3.0 ESE 24 41 13 22 - - 0.0
28/04:30am 16.2 11.8 10.5 69 3.1 ESE 24 43 13 23 - - 0.0
28/04:00am 16.3 12.2 10.2 67 3.3 ESE 22 41 12 22 - - 0.0
28/03:30am 16.6 12.9 10.0 65 3.5 ESE 20 41 11 22 - - 0.0
28/03:06am 16.8 11.5 10.0 64 3.7 ESE 28 48 15 26 - - 0.0
28/03:00am 16.9 12.3 9.8 63 3.8 ESE 24 44 13 24 - - 0.0
28/02:30am 17.2 13.4 9.9 62 3.9 ESE 20 39 11 21 - - 0.0
28/02:00am 17.5 13.0 9.9 61 4.1 ESE 24 48 13 26 - - 0.0
28/01:30am 17.8 13.3 9.9 60 4.3 ESE 24 41 13 22 - - 0.0
28/01:00am 18.4 14.3 10.0 58 4.6 ESE 22 43 12 23 - - 0.0
28/12:32am 19.1 13.9 10.1 56 4.9 ESE 28 50 15 27 - - 0.0
28/12:30am 19.1 14.2 10.1 56 4.9 ESE 26 50 14 27 - - 0.0
28/12:00am 19.7 14.1 10.1 54 5.3 ESE 30 59 16 32 - - 0.0
 
Date/Time
WST
Temp
°C
App
Temp
°C
Dew
Point
°C
Rel
Hum
%
Delta-T
°C
Wind Press
QNH
hPa
Press
MSL
hPa
Rain since
9am
mm
Dir  Spd
km/h
Gust
km/h
Spd
kts
Gust
kts
27/11:56pm 19.8 14.6 10.2 54 5.3 ESE 28 52 15 28 - - 0.0
27/11:30pm 20.6 15.7 10.1 51 5.8 ESE 26 44 14 24 - - 0.0
27/11:00pm 21.3 17.1 9.9 48 6.3 ESE 22 43 12 23 - - 0.0
27/10:30pm 22.0 17.8 9.9 46 6.7 ESE 22 41 12 22 - - 0.0
27/10:00pm 22.4 18.4 8.9 42 7.3 ESE 20 44 11 24 - - 0.0
27/09:30pm 22.3 18.3 8.4 41 7.5 ESE 19 30 10 16 - - 0.0
27/09:00pm 22.4 18.7 8.1 40 7.7 ESE 17 28 9 15 - - 0.0
27/08:30pm 22.9 19.2 7.8 38 8.1 SE 17 28 9 15 - - 0.0
27/08:00pm 23.2 19.9 8.1 38 8.1 SE 15 22 8 12 - - 0.0
27/07:30pm 23.5 20.7 8.4 38 8.2 SE 13 20 7 11 - - 0.0
27/07:00pm 23.8 21.4 8.6 38 8.3 SE 11 17 6 9 - - 0.0
27/06:30pm 24.8 22.4 8.7 36 8.8 SE 11 20 6 11 - - 0.0
27/06:00pm 25.5 23.2 8.9 35 9.2 SE 11 20 6 11 - - 0.0
27/05:30pm 25.9 23.4 8.0 32 9.8 ESE 11 20 6 11 - - 0.0
27/05:00pm 26.2 23.6 7.7 31 10.0 SE 11 20 6 11 - - 0.0
27/04:30pm 27.3 23.9 7.7 29 10.7 SE 15 26 8 14 - - 0.0
27/04:00pm 26.9 24.2 7.4 29 10.6 SE 11 24 6 13 - - 0.0
27/03:30pm 27.4 25.3 8.3 30 10.5 E 9 17 5 9 - - 0.0
27/03:00pm 26.9 23.7 8.4 31 10.2 E 15 30 8 16 - - 0.0
27/02:30pm 27.3 24.5 8.7 31 10.3 ESE 13 28 7 15 - - 0.0
27/02:00pm 27.6 25.4 9.4 32 10.2 SE 11 26 6 14 - - 0.0
27/01:30pm 26.9 24.7 9.3 33 9.9 ESE 11 24 6 13 - - 0.0
27/01:00pm 26.8 23.0 9.2 33 9.8 E 19 39 10 21 - - 0.0
27/12:30pm 25.5 21.8 9.3 36 9.0 E 19 32 10 17 - - 0.0
27/12:00pm 24.2 21.0 10.1 41 7.9 ESE 17 32 9 17 - - 0.0
27/11:30am 24.4 20.7 10.3 41 7.9 E 20 43 11 23 - - 0.0
27/11:00am 22.9 19.0 10.7 46 6.9 ESE 22 46 12 25 - - 0.0
27/10:30am 21.7 17.8 10.8 50 6.1 ESE 22 44 12 24 - - 0.0
27/10:00am 20.8 16.6 11.2 54 5.4 ESE 24 39 13 21 - - 0.0
27/09:30am 20.4 15.2 11.6 57 5.0 E 30 50 16 27 - - 0.0
27/09:06am 19.9 15.1 11.7 59 4.6 ESE 28 46 15 25 - - 0.0
27/09:00am 19.6 15.1 11.4 59 4.6 ESE 26 44 14 24 - - 0.0
27/08:30am 18.1 13.2 11.4 65 3.7 ESE 28 46 15 25 - - 0.0
27/08:02am 17.1 12.2 11.4 69 3.1 ESE 28 48 15 26 - - 0.0
27/08:00am 16.9 12.3 11.2 69 3.1 ESE 26 48 14 26 - - 0.0
27/07:30am 15.9 11.0 11.3 74 2.5 ESE 28 48 15 26 - - 0.0
27/07:00am 15.0 10.4 11.0 77 2.2 ESE 26 43 14 23 - - 0.0
27/06:30am 14.3 10.4 10.9 80 1.8 ESE 22 43 12 23 - - 0.0
27/06:00am 14.2 9.9 10.8 80 1.8 ESE 24 39 13 21 - - 0.0
27/05:30am 14.1 9.8 10.7 80 1.8 ESE 24 44 13 24 - - 0.0
27/05:00am 14.2 9.9 10.8 80 1.8 ESE 24 46 13 25 - - 0.0
27/04:32am 14.1 9.0 10.7 80 1.8 ESE 28 54 15 29 - - 0.0
27/04:30am 14.1 9.4 10.7 80 1.8 ESE 26 44 14 24 - - 0.0
27/04:00am 14.2 9.1 10.6 79 1.9 ESE 28 46 15 25 - - 0.0
27/03:57am 14.2 9.1 10.6 79 1.9 ESE 28 46 15 25 - - 0.0
27/03:30am 14.5 10.2 10.9 79 1.9 ESE 24 44 13 24 - - 0.0
27/03:00am 14.7 10.9 11.1 79 2.0 ESE 22 39 12 21 - - 0.0
27/02:30am 15.0 11.6 11.2 78 2.1 ESE 20 39 11 21 - - 0.0
27/02:00am 15.2 11.0 11.2 77 2.2 ESE 24 43 13 23 - - 0.0
27/01:34am 15.5 10.5 11.1 75 2.4 ESE 28 46 15 25 - - 0.0
27/01:30am 15.6 11.4 11.2 75 2.4 ESE 24 46 13 25 - - 0.0
27/01:17am 15.7 10.7 11.1 74 2.5 ESE 28 48 15 26 - - 0.0
27/01:00am 15.9 11.6 10.9 72 2.7 ESE 24 43 13 23 - - 0.0
27/12:32am 16.5 11.5 11.0 70 3.0 ESE 28 54 15 29 - - 0.0
27/12:30am 16.5 11.8 10.8 69 3.1 ESE 26 43 14 23 - - 0.0
27/12:13am 16.8 11.8 10.9 68 3.2 ESE 28 52 15 28 - - 0.0
27/12:00am 17.0 12.3 10.8 67 3.4 ESE 26 46 14 25 - - 0.0
 
Date/Time
WST
Temp
°C
App
Temp
°C
Dew
Point
°C
Rel
Hum
%
Delta-T
°C
Wind Press
QNH
hPa
Press
MSL
hPa
Rain since
9am
mm
Dir  Spd
km/h
Gust
km/h
Spd
kts
Gust
kts
26/11:30pm 17.4 13.5 10.8 65 3.6 ESE 22 43 12 23 - - 0.0
26/11:00pm 17.9 14.4 10.8 63 3.9 ESE 20 35 11 19 - - 0.0
26/10:30pm 18.4 13.7 10.8 61 4.2 SE 26 44 14 24 - - 0.0
26/10:00pm 19.1 14.5 10.9 59 4.5 SE 26 48 14 26 - - 0.0
26/09:30pm 19.8 16.0 11.0 57 4.9 SE 22 35 12 19 - - 0.0
26/09:00pm 20.3 16.5 11.0 55 5.2 SE 22 41 12 22 - - 0.0
26/08:41pm 20.8 15.9 11.2 54 5.4 SE 28 52 15 28 - - 0.0
26/08:30pm 21.0 17.2 11.1 53 5.6 SE 22 41 12 22 - - 0.0
26/08:00pm 21.5 18.2 10.9 51 5.9 SE 19 44 10 24 - - 0.0
26/07:30pm 22.5 19.4 10.3 46 6.8 SSE 17 32 9 17 - - 0.0
26/07:00pm 23.1 19.5 9.8 43 7.4 SE 19 35 10 19 - - 0.0
26/06:30pm 23.9 20.2 9.5 40 8.0 SE 19 39 10 21 - - 0.0
26/06:00pm 24.8 21.8 9.1 37 8.7 SE 15 33 8 18 - - 0.0
26/05:30pm 25.4 21.1 9.3 36 8.9 SE 22 44 12 24 - - 0.0
26/05:00pm 26.1 22.1 9.0 34 9.5 SE 20 33 11 18 - - 0.0
26/04:30pm 26.4 22.7 9.3 34 9.5 SE 19 35 10 19 - - 0.0
26/04:00pm 26.6 22.8 9.0 33 9.8 SE 19 43 10 23 - - 0.0
26/03:30pm 27.0 23.3 9.4 33 9.9 SSE 19 32 10 17 - - 0.0
26/03:00pm 27.6 23.8 9.9 33 10.0 SE 20 43 11 23 - - 0.0
26/02:30pm 26.5 23.0 10.2 36 9.2 SE 19 35 10 19 - - 0.0
26/02:00pm 26.7 22.3 10.4 36 9.3 SSE 24 50 13 27 - - 0.0
26/01:30pm 26.1 22.5 10.7 38 8.8 SE 20 46 11 25 - - 0.0
26/01:00pm 25.6 22.0 11.7 42 8.1 SE 22 39 12 21 - - 0.0
26/12:30pm 25.3 21.2 11.5 42 8.0 SE 24 43 13 23 - - 0.0
26/12:24pm 24.9 20.1 11.5 43 7.7 SE 28 50 15 27 - - 0.0
26/12:00pm 23.6 20.3 11.6 47 6.9 SE 20 46 11 25 - - 0.0
26/11:30am 23.3 20.1 12.0 49 6.5 SE 20 43 11 23 - - 0.0
26/11:00am 22.1 18.6 12.1 53 5.7 SE 22 41 12 22 - - 0.0
26/10:30am 21.7 18.9 13.1 58 5.0 SE 20 39 11 21 - - 0.0
26/10:00am 21.7 18.3 13.6 60 4.8 ESE 24 43 13 23 - - 0.0
26/09:30am 20.6 18.4 13.3 63 4.2 ESE 17 39 9 21 - - 0.0
26/09:00am 19.4 16.6 13.1 67 3.6 SE 20 46 11 25 - - 0.0
26/08:30am 19.3 16.4 13.0 67 3.6 ESE 20 46 11 25 - - 0.0
26/08:00am 18.4 15.6 13.1 71 3.0 ESE 20 35 11 19 - - 0.0
26/07:30am 17.9 14.2 12.8 72 2.9 SE 24 50 13 27 - - 0.0
26/07:25am 17.8 13.3 12.7 72 2.9 SE 28 50 15 27 - - 0.0
26/07:00am 17.7 14.8 12.8 73 2.8 SE 20 43 11 23 - - 0.0
26/06:30am 17.5 14.1 12.6 73 2.8 ESE 22 44 12 24 - - 0.0
26/06:00am 17.5 13.8 12.6 73 2.8 SE 24 43 13 23 - - 0.0
26/05:30am 17.5 14.7 12.6 73 2.8 SE 19 32 10 17 - - 0.0
26/05:00am 17.4 14.3 12.3 72 2.9 SE 20 33 11 18 - - 0.0
26/04:30am 17.3 14.4 12.8 75 2.6 SE 20 41 11 22 - - 0.0
26/04:00am 17.1 14.2 13.0 77 2.3 SE 20 44 11 24 - - 0.0
26/03:30am 16.7 13.5 13.0 79 2.1 SE 22 44 12 24 - - 0.0
26/03:00am 16.1 13.8 13.0 82 1.8 SE 17 28 9 15 - - 0.0
26/02:30am 16.3 14.0 13.0 81 1.9 SE 17 33 9 18 - - 0.0
26/02:00am 16.9 14.0 13.0 78 2.2 SE 20 43 11 23 - - 0.0
26/01:30am 17.6 15.4 13.3 76 2.5 SE 17 32 9 17 - - 0.0
26/01:00am 18.4 15.9 13.5 73 2.8 SE 19 32 10 17 - - 0.0
26/12:30am 18.9 17.2 13.5 71 3.1 SE 15 26 8 14 - - 0.0
26/12:00am 19.6 17.6 13.8 69 3.4 SE 17 30 9 16 - - 0.0
 
Date/Time
WST
Temp
°C
App
Temp
°C
Dew
Point
°C
Rel
Hum
%
Delta-T
°C
Wind Press
QNH
hPa
Press
MSL
hPa
Rain since
9am
mm
Dir  Spd
km/h
Gust
km/h
Spd
kts
Gust
kts
25/11:30pm 20.1 17.5 13.8 67 3.7 SE 20 33 11 18 - - 0.0
25/11:00pm 20.7 18.3 13.9 65 4.0 SE 19 35 10 19 - - 0.0
25/10:30pm 20.9 18.3 13.8 64 4.2 SSE 20 33 11 18 - - 0.0
25/10:00pm 20.9 18.7 14.3 66 3.9 SSE 19 30 10 16 - - 0.0
25/09:30pm 20.6 19.2 14.5 68 3.6 SSW 15 22 8 12 - - 0.0
25/09:00pm 21.1 19.4 14.7 67 3.8 SSW 17 24 9 13 - - 0.0
25/08:30pm 21.4 19.7 14.8 66 4.0 SSW 17 24 9 13 - - 0.0
25/08:00pm 21.8 19.9 15.2 66 4.0 SSW 19 28 10 15 - - 0.0
25/07:30pm 22.7 20.7 15.0 61 4.7 SW 19 32 10 17 - - 0.0
25/07:00pm 23.9 22.2 14.6 56 5.6 SW 17 24 9 13 - - 0.0
25/06:30pm 24.9 23.1 14.4 52 6.3 SW 17 26 9 14 - - 0.0
25/06:00pm 26.2 24.3 14.3 48 7.2 SW 17 32 9 17 - - 0.0

Other formats

Comma delimited format used in spreadsheet applications
http://www.bom.gov.au/fwo/IDW60801/IDW60801.95610.axf

JavaScript Object Notation format (JSON) in row-major order
http://www.bom.gov.au/fwo/IDW60801/IDW60801.95610.json

Data quality

Most of these data are generated automatically and are frequently updated. Quality checks on data are not normally performed. It is possible for incorrect values to appear. Refer to information at About Latest Weather Observations and please check the disclaimer before using these data.